sensor_id;sensor_type;location;lat;lon;timestamp;pressure;altitude;pressure_sealevel;temperature
71163;BMP280;58858;50.948;6.566;2022-09-27T00:01:30;98745.81;;;8.51
71163;BMP280;58858;50.948;6.566;2022-09-27T00:11:33;98746.28;;;8.38
71163;BMP280;58858;50.948;6.566;2022-09-27T00:21:35;98780.94;;;8.26
71163;BMP280;58858;50.948;6.566;2022-09-27T00:31:36;98758.69;;;8.11
71163;BMP280;58858;50.948;6.566;2022-09-27T00:41:38;98761.56;;;8.13
71163;BMP280;58858;50.948;6.566;2022-09-27T00:51:40;98773.03;;;8.21
71163;BMP280;58858;50.948;6.566;2022-09-27T01:01:43;98763.56;;;8.22
71163;BMP280;58858;50.948;6.566;2022-09-27T01:11:53;98777.09;;;8.02
71163;BMP280;58858;50.948;6.566;2022-09-27T01:22:18;98795.16;;;8.16
71163;BMP280;58858;50.948;6.566;2022-09-27T01:32:36;98802.47;;;8.04
71163;BMP280;58858;50.948;6.566;2022-09-27T01:42:52;98802.06;;;8.07
71163;BMP280;58858;50.948;6.566;2022-09-27T01:53:02;98801.03;;;8.12
71163;BMP280;58858;50.948;6.566;2022-09-27T02:03:15;98791.41;;;7.84
71163;BMP280;58858;50.948;6.566;2022-09-27T02:13:52;98800.03;;;7.99
71163;BMP280;58858;50.948;6.566;2022-09-27T02:24:31;98814.09;;;8.05
71163;BMP280;58858;50.948;6.566;2022-09-27T02:34:35;98796.72;;;7.72
71163;BMP280;58858;50.948;6.566;2022-09-27T02:44:37;98807.19;;;7.57
71163;BMP280;58858;50.948;6.566;2022-09-27T03:05:29;98837.19;;;7.67
71163;BMP280;58858;50.948;6.566;2022-09-27T03:15:32;98853.53;;;7.67
71163;BMP280;58858;50.948;6.566;2022-09-27T03:25:37;98862.16;;;7.63
71163;BMP280;58858;50.948;6.566;2022-09-27T03:35:38;98865.38;;;7.34
71163;BMP280;58858;50.948;6.566;2022-09-27T03:45:42;98861.91;;;7.33
71163;BMP280;58858;50.948;6.566;2022-09-27T03:55:45;98875.00;;;7.18
71163;BMP280;58858;50.948;6.566;2022-09-27T04:05:46;98864.56;;;7.24
71163;BMP280;58858;50.948;6.566;2022-09-27T04:15:52;98843.28;;;7.04
71163;BMP280;58858;50.948;6.566;2022-09-27T04:26:12;98858.19;;;7.03
71163;BMP280;58858;50.948;6.566;2022-09-27T04:36:22;98862.22;;;7.02
71163;BMP280;58858;50.948;6.566;2022-09-27T04:46:45;98857.25;;;6.92
71163;BMP280;58858;50.948;6.566;2022-09-27T04:56:47;98866.94;;;6.76
71163;BMP280;58858;50.948;6.566;2022-09-27T05:06:49;98878.69;;;6.78
71163;BMP280;58858;50.948;6.566;2022-09-27T05:16:53;98886.72;;;6.76
71163;BMP280;58858;50.948;6.566;2022-09-27T05:27:15;98908.84;;;6.90
71163;BMP280;58858;50.948;6.566;2022-09-27T05:37:19;98913.69;;;6.82
71163;BMP280;58858;50.948;6.566;2022-09-27T05:47:21;98929.91;;;6.89
71163;BMP280;58858;50.948;6.566;2022-09-27T05:57:22;98925.63;;;7.21
71163;BMP280;58858;50.948;6.566;2022-09-27T06:07:29;98927.31;;;7.17
71163;BMP280;58858;50.948;6.566;2022-09-27T06:17:33;98924.41;;;7.32
71163;BMP280;58858;50.948;6.566;2022-09-27T06:27:39;98921.19;;;7.42
71163;BMP280;58858;50.948;6.566;2022-09-27T06:37:45;98933.53;;;7.52
71163;BMP280;58858;50.948;6.566;2022-09-27T06:47:48;98936.31;;;7.71
71163;BMP280;58858;50.948;6.566;2022-09-27T06:58:04;98945.28;;;7.99
71163;BMP280;58858;50.948;6.566;2022-09-27T07:08:43;98961.22;;;7.93
71163;BMP280;58858;50.948;6.566;2022-09-27T07:18:47;98972.00;;;8.10
71163;BMP280;58858;50.948;6.566;2022-09-27T07:28:48;98959.69;;;8.18
71163;BMP280;58858;50.948;6.566;2022-09-27T07:38:51;98940.03;;;8.84
71163;BMP280;58858;50.948;6.566;2022-09-27T07:49:02;98963.59;;;8.52
71163;BMP280;58858;50.948;6.566;2022-09-27T07:59:29;98975.09;;;8.60
71163;BMP280;58858;50.948;6.566;2022-09-27T08:09:31;98978.53;;;8.70
71163;BMP280;58858;50.948;6.566;2022-09-27T08:19:32;98991.25;;;9.80
71163;BMP280;58858;50.948;6.566;2022-09-27T08:29:56;98970.19;;;9.92
71163;BMP280;58858;50.948;6.566;2022-09-27T08:39:58;98954.72;;;10.26
71163;BMP280;58858;50.948;6.566;2022-09-27T08:50:27;98994.16;;;10.53
71163;BMP280;58858;50.948;6.566;2022-09-27T09:00:29;98995.28;;;10.91
71163;BMP280;58858;50.948;6.566;2022-09-27T09:21:32;99023.00;;;11.06
71163;BMP280;58858;50.948;6.566;2022-09-27T09:31:46;99006.75;;;10.47
71163;BMP280;58858;50.948;6.566;2022-09-27T09:52:10;99022.97;;;10.54
71163;BMP280;58858;50.948;6.566;2022-09-27T10:02:31;99006.47;;;10.22
71163;BMP280;58858;50.948;6.566;2022-09-27T10:12:40;99014.47;;;10.29
71163;BMP280;58858;50.948;6.566;2022-09-27T10:22:47;99030.00;;;10.36
71163;BMP280;58858;50.948;6.566;2022-09-27T10:33:16;99023.22;;;10.37
71163;BMP280;58858;50.948;6.566;2022-09-27T10:53:33;99017.38;;;10.93
71163;BMP280;58858;50.948;6.566;2022-09-27T11:03:48;98976.09;;;11.23
71163;BMP280;58858;50.948;6.566;2022-09-27T11:34:28;98944.69;;;11.79
71163;BMP280;58858;50.948;6.566;2022-09-27T11:44:46;98963.50;;;11.40
71163;BMP280;58858;50.948;6.566;2022-09-27T11:55:09;99022.41;;;11.50
71163;BMP280;58858;50.948;6.566;2022-09-27T12:15:33;99054.00;;;10.88
71163;BMP280;58858;50.948;6.566;2022-09-27T12:25:41;99093.13;;;9.99
71163;BMP280;58858;50.948;6.566;2022-09-27T12:35:51;99139.13;;;8.99
71163;BMP280;58858;50.948;6.566;2022-09-27T12:56:45;99132.63;;;8.76
71163;BMP280;58858;50.948;6.566;2022-09-27T13:27:55;99075.72;;;9.19
71163;BMP280;58858;50.948;6.566;2022-09-27T13:38:02;99064.06;;;9.00
71163;BMP280;58858;50.948;6.566;2022-09-27T13:48:37;99053.97;;;9.30
71163;BMP280;58858;50.948;6.566;2022-09-27T13:58:54;99055.91;;;9.76
71163;BMP280;58858;50.948;6.566;2022-09-27T14:09:28;99040.34;;;10.38
71163;BMP280;58858;50.948;6.566;2022-09-27T14:19:49;99006.47;;;10.63
71163;BMP280;58858;50.948;6.566;2022-09-27T14:30:09;99001.38;;;11.21
71163;BMP280;58858;50.948;6.566;2022-09-27T14:40:19;98997.47;;;10.51
71163;BMP280;58858;50.948;6.566;2022-09-27T14:50:26;99001.94;;;9.67
71163;BMP280;58858;50.948;6.566;2022-09-27T15:00:30;99018.06;;;8.97
71163;BMP280;58858;50.948;6.566;2022-09-27T15:10:34;99022.16;;;9.44
71163;BMP280;58858;50.948;6.566;2022-09-27T15:20:35;98995.13;;;9.77
71163;BMP280;58858;50.948;6.566;2022-09-27T15:30:41;98961.97;;;9.92
71163;BMP280;58858;50.948;6.566;2022-09-27T15:50:46;98985.81;;;9.71
71163;BMP280;58858;50.948;6.566;2022-09-27T16:00:53;99013.13;;;9.80
71163;BMP280;58858;50.948;6.566;2022-09-27T16:10:56;99003.09;;;9.64
71163;BMP280;58858;50.948;6.566;2022-09-27T16:20:58;99025.69;;;9.65
71163;BMP280;58858;50.948;6.566;2022-09-27T16:31:01;99041.16;;;9.42
71163;BMP280;58858;50.948;6.566;2022-09-27T16:41:03;99012.34;;;9.50
71163;BMP280;58858;50.948;6.566;2022-09-27T16:51:16;99002.59;;;9.38
71163;BMP280;58858;50.948;6.566;2022-09-27T17:01:36;99007.84;;;9.16
71163;BMP280;58858;50.948;6.566;2022-09-27T17:11:37;99026.25;;;9.06
71163;BMP280;58858;50.948;6.566;2022-09-27T17:21:38;99018.78;;;8.97
71163;BMP280;58858;50.948;6.566;2022-09-27T17:31:40;98997.53;;;8.86
71163;BMP280;58858;50.948;6.566;2022-09-27T17:41:41;99019.09;;;8.82
71163;BMP280;58858;50.948;6.566;2022-09-27T17:51:49;99019.06;;;8.92
71163;BMP280;58858;50.948;6.566;2022-09-27T18:01:50;99011.91;;;8.96
71163;BMP280;58858;50.948;6.566;2022-09-27T18:11:52;98968.53;;;8.63
71163;BMP280;58858;50.948;6.566;2022-09-27T18:21:53;98980.84;;;8.64
71163;BMP280;58858;50.948;6.566;2022-09-27T18:31:56;98971.34;;;8.46
71163;BMP280;58858;50.948;6.566;2022-09-27T18:41:59;98964.00;;;8.40
71163;BMP280;58858;50.948;6.566;2022-09-27T18:52:00;98922.78;;;8.26
71163;BMP280;58858;50.948;6.566;2022-09-27T19:02:02;98922.50;;;8.41
71163;BMP280;58858;50.948;6.566;2022-09-27T19:12:03;98891.06;;;8.22
71163;BMP280;58858;50.948;6.566;2022-09-27T19:22:05;98883.00;;;8.33
71163;BMP280;58858;50.948;6.566;2022-09-27T19:32:07;98865.94;;;8.14
71163;BMP280;58858;50.948;6.566;2022-09-27T19:42:09;98848.56;;;8.09
71163;BMP280;58858;50.948;6.566;2022-09-27T19:52:10;98843.09;;;8.19
71163;BMP280;58858;50.948;6.566;2022-09-27T20:02:11;98829.59;;;8.21
71163;BMP280;58858;50.948;6.566;2022-09-27T20:12:12;98809.78;;;8.11
71163;BMP280;58858;50.948;6.566;2022-09-27T20:22:13;98875.38;;;8.04
71163;BMP280;58858;50.948;6.566;2022-09-27T20:32:14;98877.38;;;7.85
71163;BMP280;58858;50.948;6.566;2022-09-27T20:42:15;98881.41;;;7.93
71163;BMP280;58858;50.948;6.566;2022-09-27T20:52:16;98872.81;;;7.87
71163;BMP280;58858;50.948;6.566;2022-09-27T21:02:19;98876.16;;;7.50
71163;BMP280;58858;50.948;6.566;2022-09-27T21:12:20;98853.66;;;7.24
71163;BMP280;58858;50.948;6.566;2022-09-27T21:22:21;98825.81;;;7.51
71163;BMP280;58858;50.948;6.566;2022-09-27T21:32:22;98803.16;;;7.58
71163;BMP280;58858;50.948;6.566;2022-09-27T21:42:23;98789.25;;;7.64
71163;BMP280;58858;50.948;6.566;2022-09-27T21:52:27;98749.09;;;7.55
71163;BMP280;58858;50.948;6.566;2022-09-27T22:02:28;98741.94;;;7.50
71163;BMP280;58858;50.948;6.566;2022-09-27T22:12:29;98758.41;;;7.33
71163;BMP280;58858;50.948;6.566;2022-09-27T22:22:30;98761.56;;;7.30
71163;BMP280;58858;50.948;6.566;2022-09-27T22:32:31;98766.03;;;7.00
71163;BMP280;58858;50.948;6.566;2022-09-27T22:42:32;98731.63;;;7.04
71163;BMP280;58858;50.948;6.566;2022-09-27T22:52:33;98726.06;;;7.02
71163;BMP280;58858;50.948;6.566;2022-09-27T23:02:34;98718.16;;;6.97
71163;BMP280;58858;50.948;6.566;2022-09-27T23:12:36;98729.72;;;6.79
71163;BMP280;58858;50.948;6.566;2022-09-27T23:22:36;98728.13;;;6.76
71163;BMP280;58858;50.948;6.566;2022-09-27T23:32:38;98718.16;;;6.88
71163;BMP280;58858;50.948;6.566;2022-09-27T23:42:39;98718.31;;;6.90
71163;BMP280;58858;50.948;6.566;2022-09-27T23:52:40;98693.81;;;6.90
